createdAt,value
2022-08-29T11:25:21.852Z,585.00
2022-08-29T11:26:21.835Z,585.00
2022-08-29T11:27:21.812Z,579.38
2022-08-29T11:28:21.816Z,585.00
2022-08-29T11:29:21.781Z,596.25
2022-08-29T11:30:21.772Z,596.25
2022-08-29T11:31:21.801Z,590.63
2022-08-29T11:32:21.750Z,596.25
2022-08-29T11:33:21.754Z,590.63
2022-08-29T11:34:21.724Z,596.25
2022-08-29T11:35:21.708Z,601.88
2022-08-29T11:36:21.694Z,590.63
2022-08-29T11:37:21.682Z,601.88
2022-08-29T11:38:21.681Z,613.13
2022-08-29T11:39:21.678Z,630.00
2022-08-29T11:40:47.327Z,635.63
2022-08-29T11:41:29.421Z,607.50
2022-08-29T11:43:21.619Z,607.50
2022-08-29T11:44:21.607Z,601.88
2022-08-29T11:45:21.584Z,573.75
2022-08-29T11:46:21.592Z,545.63
2022-08-29T11:47:21.558Z,545.63
2022-08-29T11:48:21.570Z,618.75
2022-08-29T11:49:21.543Z,641.25
2022-08-29T11:50:21.523Z,613.13
2022-08-29T11:51:21.509Z,635.63
2022-08-29T11:52:22.522Z,596.25
2022-08-29T11:53:21.501Z,556.88
2022-08-29T11:54:25.006Z,540.00
2022-08-29T11:55:21.471Z,568.13
2022-08-29T11:56:29.031Z,585.00
2022-08-29T11:57:21.444Z,624.38
2022-08-29T11:58:21.445Z,607.50
2022-08-29T11:59:21.413Z,601.88
2022-08-29T12:00:21.440Z,562.50
2022-08-29T12:01:21.396Z,590.63
2022-08-29T12:02:21.415Z,573.75
2022-08-29T12:03:28.548Z,585.00
2022-08-29T12:04:21.375Z,613.13
2022-08-29T12:05:21.339Z,534.38
2022-08-29T12:06:21.329Z,523.13
2022-08-29T12:07:21.326Z,573.75
2022-08-29T12:08:35.966Z,556.88
2022-08-29T12:09:21.350Z,568.13
2022-08-29T12:10:21.288Z,579.38
2022-08-29T12:11:21.280Z,568.13
2022-08-29T12:12:21.259Z,568.13
2022-08-29T12:13:21.260Z,562.50
2022-08-29T12:14:21.252Z,573.75
2022-08-29T12:15:21.232Z,573.75
2022-08-29T12:16:21.250Z,568.13
2022-08-29T12:17:21.202Z,562.50
2022-08-29T12:18:21.211Z,556.88
2022-08-29T12:19:21.185Z,534.38
2022-08-29T12:20:21.167Z,506.25
2022-08-29T12:21:21.155Z,511.88
2022-08-29T12:22:22.031Z,534.38
2022-08-29T12:23:21.146Z,545.63
2022-08-29T12:24:21.134Z,562.50
2022-08-29T12:25:21.108Z,573.75
2022-08-29T12:26:22.801Z,585.00
2022-08-29T12:27:21.089Z,624.38
2022-08-29T12:28:21.089Z,635.63
2022-08-29T12:29:21.068Z,618.75
2022-08-29T12:30:21.068Z,613.13
2022-08-29T12:31:21.109Z,652.50
2022-08-29T12:32:23.826Z,697.50
2022-08-29T12:33:21.036Z,759.38
2022-08-29T12:34:23.449Z,894.38
2022-08-29T12:35:21.003Z,1040.63
2022-08-29T12:36:20.994Z,1186.88
2022-08-29T12:37:20.993Z,1468.13
2022-08-29T12:38:20.984Z,1828.13
2022-08-29T12:39:20.962Z,2160.00
2022-08-29T12:40:20.999Z,2379.38
2022-08-29T12:41:20.941Z,2542.50
2022-08-29T12:42:20.940Z,2745.00
2022-08-29T12:43:20.934Z,3341.25
2022-08-29T12:44:20.922Z,3048.75
2022-08-29T12:45:20.901Z,2671.88
2022-08-29T12:46:20.925Z,2908.13
2022-08-29T12:47:20.882Z,3105.00
2022-08-29T12:48:20.895Z,2559.38
2022-08-29T12:49:20.863Z,2008.13
2022-08-29T12:50:20.854Z,2671.88
2022-08-29T12:51:20.853Z,2677.50
2022-08-29T12:52:20.835Z,2863.13
2022-08-29T12:53:20.845Z,2947.50
2022-08-29T12:54:20.826Z,3138.75
2022-08-29T12:55:20.815Z,1951.88
2022-08-29T12:56:20.794Z,624.38
2022-08-29T12:57:20.785Z,2497.50
2022-08-29T12:58:20.800Z,3290.63
2022-08-29T12:59:20.766Z,3262.50
2022-08-29T13:00:20.764Z,3054.38
2022-08-29T13:01:20.785Z,2958.75
2022-08-29T13:02:20.776Z,2497.50
2022-08-29T13:03:20.805Z,2756.25
2022-08-29T13:04:20.721Z,2390.63
2022-08-29T13:05:22.579Z,2576.25
2022-08-29T13:06:20.704Z,2677.50
2022-08-29T13:08:20.831Z,2126.25
2022-08-29T13:09:20.682Z,2396.25
2022-08-29T13:10:20.672Z,2778.75
2022-08-29T13:11:20.650Z,2683.13
2022-08-29T13:12:20.641Z,2266.88
2022-08-29T13:13:20.646Z,1845.00
2022-08-29T13:14:20.633Z,1569.38
2022-08-29T13:15:20.626Z,703.13
2022-08-29T13:16:20.662Z,1130.63
2022-08-29T13:17:20.598Z,1485.00
2022-08-29T13:18:20.598Z,2300.63
2022-08-29T13:19:20.578Z,2300.63
2022-08-29T13:20:20.579Z,1344.38
2022-08-29T13:21:20.560Z,2081.25
2022-08-29T13:22:20.550Z,2536.88
2022-08-29T13:23:20.547Z,2531.25
2022-08-29T13:24:20.565Z,2677.50
2022-08-29T13:25:20.528Z,2441.25
2022-08-29T13:26:20.513Z,2649.38
2022-08-29T13:27:20.512Z,2604.38
2022-08-29T13:28:20.502Z,2694.38
2022-08-29T13:29:20.537Z,2767.50
2022-08-29T13:30:20.485Z,2328.75
2022-08-29T13:31:20.553Z,2626.88
2022-08-29T13:32:20.467Z,2446.88
2022-08-29T13:33:20.448Z,2936.25
2022-08-29T13:34:20.450Z,2992.50
2022-08-29T13:35:20.447Z,1884.38
2022-08-29T13:36:20.430Z,2761.88
2022-08-29T13:37:20.417Z,2030.63
2022-08-29T13:38:20.404Z,2756.25
2022-08-29T13:39:20.404Z,2896.88
2022-08-29T13:40:20.492Z,2733.75
2022-08-29T13:41:20.384Z,2671.88
2022-08-29T13:42:20.367Z,2683.13
2022-08-29T13:43:20.365Z,2801.25
2022-08-29T13:44:20.371Z,2941.88
2022-08-29T13:45:20.339Z,2655.00
2022-08-29T13:46:20.388Z,2638.13
2022-08-29T13:47:20.327Z,2542.50
2022-08-29T13:48:20.455Z,2463.75
2022-08-29T13:49:20.320Z,1366.88
2022-08-29T13:50:20.299Z,2750.63
2022-08-29T13:51:20.303Z,2385.00
2022-08-29T13:52:20.291Z,2458.13
2022-08-29T13:53:20.284Z,2255.63
2022-08-29T13:54:20.287Z,2154.38
2022-08-29T13:55:20.260Z,2283.75
2022-08-29T13:56:20.438Z,2818.13
2022-08-29T13:57:20.254Z,2891.25
2022-08-29T13:58:20.245Z,2806.88
2022-08-29T13:59:20.252Z,2688.75
2022-08-29T14:00:22.798Z,2266.88
2022-08-29T14:02:20.420Z,1833.75
2022-08-29T14:03:20.311Z,1951.88
2022-08-29T14:04:37.395Z,1963.13
2022-08-29T14:05:20.179Z,1929.38
2022-08-29T14:06:20.172Z,2047.50
2022-08-29T14:07:20.166Z,2019.38
2022-08-29T14:08:20.156Z,1940.63
2022-08-29T14:09:20.166Z,2025.00
2022-08-29T14:10:20.152Z,1890.00
2022-08-29T14:11:20.145Z,1468.13
2022-08-29T14:12:20.126Z,1906.88
2022-08-29T14:13:20.130Z,1541.25
2022-08-29T14:14:20.113Z,1670.63
2022-08-29T14:15:20.119Z,1558.13
2022-08-29T14:16:20.157Z,1485.00
2022-08-29T14:17:20.092Z,1873.13
2022-08-29T14:18:20.084Z,1856.25
2022-08-29T14:19:20.087Z,1485.00
2022-08-29T14:20:20.093Z,1288.13
2022-08-29T14:21:20.068Z,1603.13
2022-08-29T14:22:20.052Z,1428.75
2022-08-29T14:23:23.169Z,1406.25
2022-08-29T14:24:20.047Z,1558.13
2022-08-29T14:25:20.055Z,1265.63
2022-08-29T14:26:20.024Z,1383.75
2022-08-29T14:27:20.017Z,1665.00
2022-08-29T14:28:20.017Z,1535.63
2022-08-29T14:29:20.005Z,1732.50
2022-08-29T14:30:20.014Z,2070.00
2022-08-29T14:31:20.063Z,1316.25
2022-08-29T14:32:19.977Z,1546.88
2022-08-29T14:33:20.107Z,1794.38
2022-08-29T14:34:19.961Z,1974.38
2022-08-29T14:35:26.494Z,1485.00
2022-08-29T14:36:19.946Z,2098.13
2022-08-29T14:37:19.954Z,2840.63
2022-08-29T14:38:19.941Z,2171.25
2022-08-29T14:39:19.923Z,1518.75
2022-08-29T14:40:21.831Z,1569.38
2022-08-29T14:41:19.907Z,1445.63
2022-08-29T14:42:19.909Z,1395.00
2022-08-29T14:43:19.903Z,1884.38
2022-08-29T14:44:20.469Z,1282.50
2022-08-29T14:45:19.888Z,1271.25
2022-08-29T14:46:19.920Z,1524.38
2022-08-29T14:47:19.872Z,1625.63
2022-08-29T14:48:19.851Z,2587.50
2022-08-29T14:49:19.844Z,2548.13
2022-08-29T14:50:19.855Z,1901.25
2022-08-29T14:51:19.829Z,1518.75
2022-08-29T14:52:19.823Z,1867.50
2022-08-29T14:53:19.813Z,2295.00
2022-08-29T14:54:19.805Z,2300.63
2022-08-29T14:55:19.812Z,1490.63
2022-08-29T14:56:37.240Z,1665.00
2022-08-29T14:57:19.783Z,1366.88
2022-08-29T14:58:19.790Z,1068.75
2022-08-29T14:59:19.773Z,984.38
2022-08-29T15:00:19.773Z,1209.38
2022-08-29T15:01:19.823Z,1906.88
2022-08-29T15:02:19.792Z,2058.75
2022-08-29T15:03:19.751Z,2131.88
2022-08-29T15:04:21.755Z,1788.75
2022-08-29T15:05:19.737Z,1676.25
2022-08-29T15:06:19.727Z,1918.13
2022-08-29T15:07:19.725Z,1265.63
2022-08-29T15:08:20.089Z,961.88
2022-08-29T15:09:19.699Z,1181.25
2022-08-29T15:10:19.707Z,928.13
2022-08-29T15:11:19.694Z,838.13
2022-08-29T15:12:19.685Z,888.75
2022-08-29T15:13:19.670Z,894.38
2022-08-29T15:14:19.679Z,1659.38
2022-08-29T15:15:19.670Z,928.13
2022-08-29T15:16:19.695Z,1991.25
2022-08-29T15:17:19.649Z,1946.25
2022-08-29T15:18:48.028Z,2053.13
2022-08-29T15:20:37.161Z,2199.38
2022-08-29T15:21:19.610Z,2165.63
2022-08-29T15:22:19.601Z,1485.00
2022-08-29T15:23:19.626Z,1035.00
2022-08-29T15:24:19.584Z,860.63
2022-08-29T15:25:19.600Z,866.25
2022-08-29T15:26:19.580Z,787.50
2022-08-29T15:27:21.627Z,804.38
2022-08-29T15:28:19.558Z,776.25
2022-08-29T15:29:19.547Z,821.25
2022-08-29T15:30:19.564Z,1018.13
2022-08-29T15:31:19.653Z,1231.88
2022-08-29T15:32:19.529Z,1552.50
2022-08-29T15:33:19.525Z,1884.38
2022-08-29T15:34:19.514Z,1929.38
2022-08-29T15:35:19.522Z,1912.50
2022-08-29T15:36:19.499Z,1760.63
2022-08-29T15:37:19.491Z,1665.00
2022-08-29T15:38:19.482Z,1693.13
2022-08-29T15:39:19.478Z,1676.25
2022-08-29T15:40:19.560Z,1591.88
2022-08-29T15:41:19.450Z,1344.38
2022-08-29T15:54:00.238Z,1288.13
2022-08-29T15:55:00.212Z,1153.13
2022-08-29T15:56:00.213Z,1158.75
2022-08-29T15:57:00.182Z,871.88
2022-08-29T15:58:00.182Z,781.88
2022-08-29T15:59:00.166Z,793.13
2022-08-29T16:00:00.187Z,1485.00
2022-08-29T16:01:00.182Z,1440.00
2022-08-29T16:02:00.237Z,939.38
2022-08-29T16:03:00.238Z,821.25
2022-08-29T16:04:00.116Z,810.00
2022-08-29T16:05:00.155Z,849.38
2022-08-29T16:06:00.119Z,905.63
2022-08-29T16:07:00.093Z,798.75
2022-08-29T16:08:00.092Z,793.13
2022-08-29T16:09:00.080Z,765.00
2022-08-29T16:10:00.075Z,714.38
2022-08-29T16:30:05.414Z,630.00
2022-08-29T16:31:05.410Z,624.38
